Time;durP1;ratioP1;P1;durP2;ratioP2;P2;SDS_P1;SDS_P2;PMS_P1;PMS_P2;Temp;Humidity;BMP_temperature;BMP_pressure;BME280_temperature;BME280_humidity;BME280_pressure;Samples;Min_cycle;Max_cycle;Signal;HPM_P1;HPM_P2
2023/10/09 00:01:26;;;;;;;17.33;10.25;;;15.70;99.90;;;;;;5035211;28;20385;-91
2023/10/09 00:03:53;;;;;;;14.63;10.30;;;15.60;99.90;;;;;;5034501;28;20048;-92
2023/10/09 00:06:38;;;;;;;15.80;10.25;;;15.70;99.90;;;;;;5018694;28;20080;-91
2023/10/09 00:09:18;;;;;;;14.75;10.32;;;15.70;99.90;;;;;;5034537;28;20044;-91
2023/10/09 00:11:48;;;;;;;15.15;11.02;;;15.70;99.90;;;;;;5034995;28;20033;-90
2023/10/09 00:14:16;;;;;;;18.58;11.13;;;15.70;99.90;;;;;;5018393;28;20034;-92
2023/10/09 00:16:48;;;;;;;18.05;11.88;;;15.70;99.90;;;;;;5035639;28;20030;-91
2023/10/09 00:19:20;;;;;;;16.38;11.90;;;15.70;99.90;;;;;;5006077;28;20052;-91
2023/10/09 00:21:47;;;;;;;18.67;12.18;;;15.70;99.90;;;;;;5053192;28;20097;-88
2023/10/09 00:24:13;;;;;;;15.85;11.82;;;15.70;99.90;;;;;;5057617;28;20529;-90
2023/10/09 00:26:49;;;;;;;16.65;11.68;;;15.70;99.90;;;;;;5035202;28;20053;-90
2023/10/09 00:29:21;;;;;;;16.00;12.30;;;15.70;99.90;;;;;;5048428;28;20013;-90
2023/10/09 00:31:54;;;;;;;19.40;12.57;;;15.70;99.90;;;;;;5023406;28;20018;-90
2023/10/09 00:34:24;;;;;;;22.25;12.80;;;15.70;99.90;;;;;;5036016;28;20037;-91
2023/10/09 00:36:51;;;;;;;18.45;12.55;;;15.70;99.90;;;;;;5017438;28;20022;-90
2023/10/09 00:42:06;;;;;;;19.65;12.10;;;15.70;99.90;;;;;;5034961;28;20485;-93
2023/10/09 00:44:48;;;;;;;18.42;12.63;;;15.70;99.90;;;;;;5034822;28;20029;-92
2023/10/09 00:47:22;;;;;;;16.85;12.07;;;15.70;99.90;;;;;;5033713;28;20025;-91
2023/10/09 00:53:03;;;;;;;19.67;13.65;;;15.80;99.90;;;;;;5029036;28;20132;-91
2023/10/09 00:58:26;;;;;;;20.67;14.13;;;15.70;99.90;;;;;;5011022;28;20041;-91
2023/10/09 01:00:54;;;;;;;19.08;12.88;;;15.70;99.90;;;;;;5034128;28;20457;-90
2023/10/09 01:03:23;;;;;;;19.42;14.20;;;15.70;99.90;;;;;;5016442;28;20033;-91
2023/10/09 01:08:47;;;;;;;20.20;13.77;;;15.60;99.90;;;;;;5034790;28;20481;-90
2023/10/09 01:11:30;;;;;;;21.42;13.70;;;15.60;99.90;;;;;;5033885;28;20025;-90
2023/10/09 01:14:11;;;;;;;20.05;13.48;;;15.70;99.90;;;;;;5034310;28;20025;-90
2023/10/09 01:16:38;;;;;;;20.58;13.73;;;15.70;99.90;;;;;;5033128;28;20029;-91
2023/10/09 01:19:12;;;;;;;18.60;13.85;;;15.70;99.90;;;;;;5033785;28;20037;-91
2023/10/09 01:21:40;;;;;;;19.55;13.13;;;15.70;99.90;;;;;;5034731;28;20046;-91
2023/10/09 01:24:09;;;;;;;20.58;13.95;;;15.70;99.90;;;;;;5016653;28;20033;-91
2023/10/09 01:26:47;;;;;;;19.48;13.93;;;15.80;99.90;;;;;;5034588;28;20041;-91
2023/10/09 01:29:18;;;;;;;21.25;14.73;;;15.80;99.90;;;;;;5015983;28;20034;-90
2023/10/09 01:31:54;;;;;;;20.65;15.55;;;15.80;99.90;;;;;;5017250;28;20504;-92
2023/10/09 01:34:38;;;;;;;20.95;14.80;;;15.80;99.90;;;;;;5034699;28;20033;-93
2023/10/09 01:37:11;;;;;;;20.13;14.63;;;15.80;99.90;;;;;;5016501;28;20037;-91
2023/10/09 01:39:42;;;;;;;19.42;14.27;;;15.90;99.90;;;;;;5033814;28;20473;-93
2023/10/09 01:42:13;;;;;;;21.63;15.27;;;15.90;99.90;;;;;;5030247;28;20085;-92
2023/10/09 01:44:48;;;;;;;24.00;15.60;;;15.90;99.90;;;;;;5030382;28;20090;-92
2023/10/09 01:47:18;;;;;;;21.27;14.38;;;15.90;99.90;;;;;;5013972;28;20043;-91
2023/10/09 01:49:53;;;;;;;24.65;16.00;;;15.90;99.90;;;;;;5019072;28;20117;-90
2023/10/09 01:52:20;;;;;;;20.10;14.85;;;16.00;99.90;;;;;;5020563;28;20033;-91
2023/10/09 01:54:53;;;;;;;19.23;14.93;;;16.00;99.90;;;;;;5020466;28;20483;-91
2023/10/09 01:57:23;;;;;;;22.48;15.68;;;16.00;99.90;;;;;;5038376;28;20026;-91
2023/10/09 01:59:55;;;;;;;19.67;14.45;;;16.00;99.90;;;;;;5021130;28;20018;-92
2023/10/09 02:02:27;;;;;;;22.85;16.02;;;16.00;99.90;;;;;;5033311;28;20047;-91
2023/10/09 02:04:54;;;;;;;25.83;16.30;;;16.10;99.90;;;;;;5022451;28;20075;-92
2023/10/09 02:07:27;;;;;;;22.98;15.60;;;16.10;99.90;;;;;;5041286;28;20033;-90
2023/10/09 02:09:57;;;;;;;20.20;15.32;;;16.10;99.90;;;;;;5042892;28;20014;-91
2023/10/09 02:12:23;;;;;;;21.90;14.95;;;16.20;99.90;;;;;;5037981;28;20040;-91
2023/10/09 02:14:53;;;;;;;24.40;16.10;;;16.20;99.90;;;;;;5035238;28;20025;-90
2023/10/09 02:17:20;;;;;;;22.23;15.25;;;16.20;99.90;;;;;;5024027;28;20044;-91
2023/10/09 02:19:52;;;;;;;22.10;15.00;;;16.20;99.90;;;;;;5003177;28;20037;-91
2023/10/09 02:22:18;;;;;;;22.98;15.30;;;16.30;99.90;;;;;;5003685;28;20041;-90
2023/10/09 02:24:52;;;;;;;21.17;15.10;;;16.30;99.90;;;;;;5019490;28;20138;-91
2023/10/09 02:30:15;;;;;;;20.35;14.90;;;16.30;99.90;;;;;;5028182;28;20044;-89
2023/10/09 02:32:44;;;;;;;20.88;15.18;;;16.30;99.90;;;;;;5019592;28;20036;-90
2023/10/09 02:35:59;;;;;;;21.15;15.77;;;16.40;99.90;;;;;;5025779;28;20028;-91
2023/10/09 02:38:10;;;;;;;21.10;15.40;;;16.40;99.90;;;;;;5022228;28;20037;-91
2023/10/09 02:41:17;;;;;;;20.13;14.45;;;16.40;99.90;;;;;;5037295;28;20032;-92
2023/10/09 02:43:28;;;;;;;17.88;14.07;;;16.40;99.90;;;;;;5021409;28;20033;-90
2023/10/09 02:45:56;;;;;;;21.95;15.63;;;16.40;99.90;;;;;;5019378;28;20485;-91
2023/10/09 02:48:30;;;;;;;21.75;15.75;;;16.50;99.90;;;;;;5018901;28;20079;-93
2023/10/09 02:50:57;;;;;;;23.05;15.23;;;16.50;99.90;;;;;;5035630;28;20056;-91
2023/10/09 02:53:28;;;;;;;19.52;13.98;;;16.50;99.90;;;;;;5036028;28;20084;-91
2023/10/09 02:56:12;;;;;;;20.92;15.55;;;16.50;99.90;;;;;;5003486;28;20368;-91
2023/10/09 02:58:42;;;;;;;16.45;13.30;;;16.60;99.90;;;;;;5019234;28;20033;-90
2023/10/09 03:01:13;;;;;;;17.95;13.55;;;16.60;99.90;;;;;;5018406;28;20377;-89
2023/10/09 03:03:46;;;;;;;18.52;14.10;;;16.70;99.90;;;;;;5018794;28;20021;-91
2023/10/09 03:06:13;;;;;;;18.48;14.50;;;16.70;99.90;;;;;;5018905;28;20527;-92
2023/10/09 03:08:42;;;;;;;22.77;14.55;;;16.70;99.90;;;;;;5028930;28;20037;-91
2023/10/09 03:11:13;;;;;;;21.85;14.10;;;16.70;99.90;;;;;;5018381;28;20014;-88
2023/10/09 03:13:47;;;;;;;19.05;14.02;;;16.70;99.90;;;;;;5018092;28;20117;-91
2023/10/09 03:16:18;;;;;;;17.70;13.55;;;16.70;99.90;;;;;;5018702;28;20062;-90
2023/10/09 03:18:51;;;;;;;19.23;13.68;;;16.70;99.90;;;;;;5019027;28;20428;-90
2023/10/09 03:21:17;;;;;;;17.88;14.05;;;16.70;99.90;;;;;;5018494;28;20060;-89
2023/10/09 03:23:49;;;;;;;18.83;13.85;;;16.70;99.90;;;;;;5018614;28;20032;-91
2023/10/09 03:26:25;;;;;;;17.02;13.00;;;16.70;99.90;;;;;;5018397;28;20033;-91
2023/10/09 03:28:52;;;;;;;17.10;13.80;;;16.80;99.90;;;;;;5019067;28;20022;-90
2023/10/09 03:31:23;;;;;;;17.13;13.20;;;16.80;99.90;;;;;;5036363;28;20021;-90
2023/10/09 03:33:48;;;;;;;17.15;13.65;;;16.80;99.90;;;;;;5036048;28;20034;-90
2023/10/09 03:36:16;;;;;;;19.92;13.77;;;16.80;99.90;;;;;;5036783;28;20032;-90
2023/10/09 03:38:42;;;;;;;16.90;13.75;;;16.80;99.90;;;;;;5018946;28;20028;-91
2023/10/09 03:41:12;;;;;;;19.38;14.00;;;16.80;99.90;;;;;;5019294;28;20025;-91
2023/10/09 03:43:43;;;;;;;19.10;13.55;;;16.80;99.90;;;;;;5020984;28;20031;-91
2023/10/09 03:46:29;;;;;;;19.58;12.45;;;16.80;99.90;;;;;;5020152;28;20135;-90
2023/10/09 03:49:00;;;;;;;18.60;12.75;;;16.80;99.90;;;;;;5025844;28;20026;-90
2023/10/09 03:51:37;;;;;;;15.00;11.55;;;16.90;99.90;;;;;;5039919;28;20006;-89
2023/10/09 03:54:07;;;;;;;17.55;13.38;;;16.90;99.90;;;;;;5039633;28;20016;-90
2023/10/09 03:56:34;;;;;;;13.77;12.27;;;16.90;99.90;;;;;;5056963;28;20037;-92
2023/10/09 03:59:04;;;;;;;16.40;12.45;;;16.90;99.90;;;;;;5050974;28;20049;-90
2023/10/09 04:01:39;;;;;;;15.48;12.32;;;16.90;99.90;;;;;;5030199;28;20029;-92
2023/10/09 04:04:10;;;;;;;17.77;12.68;;;16.90;99.90;;;;;;5019535;28;20037;-90
2023/10/09 04:06:39;;;;;;;16.30;11.85;;;16.90;99.90;;;;;;5002091;28;20385;-90
2023/10/09 04:14:43;;;;;;;17.00;12.05;;;16.90;99.90;;;;;;5035335;28;20132;-91
2023/10/09 04:17:43;;;;;;;15.88;11.50;;;16.90;99.90;;;;;;5035424;28;20346;-92
2023/10/09 04:22:54;;;;;;;13.02;10.63;;;16.90;99.90;;;;;;5036492;28;20380;-92
2023/10/09 04:25:25;;;;;;;14.23;10.17;;;17.00;99.90;;;;;;5019828;28;20021;-91
2023/10/09 04:28:00;;;;;;;14.85;10.65;;;17.00;99.90;;;;;;5001550;28;20056;-91
2023/10/09 04:30:26;;;;;;;14.10;10.93;;;17.00;99.90;;;;;;5017683;28;20040;-90
2023/10/09 04:32:55;;;;;;;15.68;11.10;;;17.00;99.90;;;;;;5017519;28;20029;-90
2023/10/09 04:35:37;;;;;;;13.20;11.00;;;17.00;99.90;;;;;;5034779;28;20030;-90
2023/10/09 04:38:05;;;;;;;14.52;10.73;;;17.00;99.90;;;;;;5017648;28;20130;-93
2023/10/09 04:43:20;;;;;;;13.73;11.35;;;17.00;99.90;;;;;;5015797;28;20091;-91
2023/10/09 04:48:52;;;;;;;14.73;9.90;;;17.10;99.90;;;;;;5033391;28;19912;-90
2023/10/09 04:51:34;;;;;;;13.85;9.65;;;17.10;99.90;;;;;;5015931;28;20558;-92
2023/10/09 04:54:12;;;;;;;13.80;10.45;;;17.00;99.90;;;;;;5015842;28;20025;-91
2023/10/09 04:56:51;;;;;;;13.38;10.07;;;17.10;99.90;;;;;;5016010;28;20034;-92
2023/10/09 04:59:24;;;;;;;12.10;10.23;;;17.10;99.90;;;;;;5033142;28;20022;-91
2023/10/09 05:01:57;;;;;;;11.88;10.63;;;17.10;99.90;;;;;;5016947;28;20454;-92
2023/10/09 05:07:22;;;;;;;15.48;10.48;;;17.10;99.90;;;;;;5023568;28;20025;-91
2023/10/09 05:10:08;;;;;;;13.57;10.55;;;17.10;99.90;;;;;;5016640;28;20076;-90
2023/10/09 05:12:34;;;;;;;12.82;9.63;;;17.10;99.90;;;;;;5028157;28;20034;-91
2023/10/09 05:15:09;;;;;;;12.13;10.23;;;17.20;99.90;;;;;;5016798;28;20127;-91
2023/10/09 05:17:40;;;;;;;10.98;9.65;;;17.10;99.90;;;;;;5029951;28;20034;-90
2023/10/09 05:22:58;;;;;;;14.55;10.13;;;17.10;99.90;;;;;;5018848;28;20108;-92
2023/10/09 05:31:45;;;;;;;13.57;9.98;;;17.20;99.90;;;;;;5038958;28;20094;-92
2023/10/09 05:33:52;;;;;;;15.70;10.48;;;17.20;99.90;;;;;;5035150;28;20478;-92
2023/10/09 05:38:58;;;;;;;14.32;9.95;;;17.20;99.90;;;;;;5023257;28;20350;-91
2023/10/09 05:41:47;;;;;;;13.82;9.93;;;17.20;99.90;;;;;;5059415;28;20021;-92
2023/10/09 06:08:27;;;;;;;13.65;10.65;;;17.30;99.90;;;;;;5006708;28;20041;-90
2023/10/09 06:13:46;;;;;;;11.73;9.52;;;17.40;99.90;;;;;;5025349;28;20037;-90
2023/10/09 06:19:12;;;;;;;16.73;10.15;;;17.40;99.90;;;;;;5037064;28;20115;-92
2023/10/09 06:24:33;;;;;;;16.27;10.50;;;17.40;99.90;;;;;;5037096;28;20448;-90
2023/10/09 06:29:35;;;;;;;13.45;10.02;;;17.40;99.90;;;;;;5036970;28;20017;-91
2023/10/09 06:34:57;;;;;;;12.15;9.50;;;17.40;99.90;;;;;;5036850;28;20132;-91
2023/10/09 06:45:16;;;;;;;12.45;8.88;;;17.50;99.90;;;;;;5036631;28;20033;-90
2023/10/09 06:47:53;;;;;;;12.45;10.20;;;17.50;99.90;;;;;;5018939;28;20053;-91
2023/10/09 06:52:58;;;;;;;14.77;10.77;;;17.60;99.90;;;;;;5035754;28;20065;-92
2023/10/09 06:55:36;;;;;;;14.63;9.68;;;17.50;99.90;;;;;;5018958;28;20232;-91
2023/10/09 06:58:09;;;;;;;14.27;10.30;;;17.60;99.90;;;;;;5004671;28;20059;-91
2023/10/09 07:03:51;;;;;;;;;;;17.60;99.90;;;;;;5037306;28;20512;-91
2023/10/09 07:06:24;;;;;;;12.75;8.70;;;17.60;99.90;;;;;;5005600;28;19913;-90
2023/10/09 07:16:58;;;;;;;13.73;9.70;;;17.60;99.90;;;;;;5036251;28;20025;-91
2023/10/09 07:19:43;;;;;;;12.18;9.43;;;17.60;99.90;;;;;;5019370;28;20097;-91
2023/10/09 07:24:49;;;;;;;13.95;10.32;;;17.70;99.90;;;;;;5036918;28;20056;-91
2023/10/09 07:27:43;;;;;;;13.53;10.43;;;17.70;99.90;;;;;;5009614;28;20055;-91
2023/10/09 07:30:35;;;;;;;17.77;10.90;;;17.70;99.90;;;;;;5058155;28;20093;-90
2023/10/09 07:35:57;;;;;;;13.57;10.63;;;17.70;99.90;;;;;;5031364;28;20060;-91
2023/10/09 07:38:28;;;;;;;12.95;10.15;;;17.80;99.90;;;;;;5008232;28;20037;-90
2023/10/09 07:41:05;;;;;;;13.50;10.07;;;17.80;99.90;;;;;;5018453;28;20389;-93
2023/10/09 07:43:49;;;;;;;15.63;10.77;;;17.80;99.90;;;;;;5018469;28;20036;-93
2023/10/09 07:46:51;;;;;;;14.32;10.57;;;17.80;99.90;;;;;;5017673;28;20017;-91
2023/10/09 07:49:35;;;;;;;;;;;;;;;;;;;;;
2023/10/09 07:52:01;;;;;;;12.38;9.93;;;17.80;99.90;;;;;;5029580;28;20026;-91
2023/10/09 07:54:34;;;;;;;14.43;10.40;;;17.80;99.90;;;;;;4998294;28;20129;-91
2023/10/09 07:57:15;;;;;;;12.88;9.55;;;17.90;99.90;;;;;;5012452;28;20466;-91
2023/10/09 07:59:54;;;;;;;13.88;9.88;;;17.90;99.90;;;;;;5017644;28;20471;-91
2023/10/09 08:02:31;;;;;;;14.50;10.70;;;17.90;99.90;;;;;;5017696;28;20066;-92
2023/10/09 08:05:06;;;;;;;13.65;9.80;;;17.90;99.90;;;;;;5035131;28;20041;-90
2023/10/09 08:07:35;;;;;;;13.70;9.70;;;17.90;99.90;;;;;;5018025;28;20024;-91
2023/10/09 08:17:54;;;;;;;14.57;9.05;;;18.00;99.90;;;;;;5034287;28;20087;-91
2023/10/09 08:23:33;;;;;;;;;;;18.10;99.90;;;;;;5039598;28;20048;-90
2023/10/09 08:26:14;;;;;;;12.98;9.57;;;18.10;99.90;;;;;;5006423;28;19910;-93
2023/10/09 08:28:45;;;;;;;11.55;8.73;;;18.20;99.90;;;;;;5003039;28;20115;-90
2023/10/09 08:31:21;;;;;;;14.48;9.65;;;18.20;99.90;;;;;;4998814;28;20089;-91
2023/10/09 08:34:09;;;;;;;13.70;9.30;;;18.30;99.90;;;;;;5034065;28;20080;-91
2023/10/09 08:36:40;;;;;;;11.32;9.20;;;18.30;99.90;;;;;;5033635;28;20428;-90
2023/10/09 08:39:23;;;;;;;11.70;8.65;;;18.30;99.90;;;;;;5034228;28;20044;-91
2023/10/09 08:41:49;;;;;;;14.07;8.65;;;18.40;99.90;;;;;;5003645;28;20029;-90
2023/10/09 08:44:22;;;;;;;11.13;7.88;;;18.40;99.90;;;;;;5033171;28;20448;-90
2023/10/09 08:46:57;;;;;;;13.80;8.85;;;18.50;99.90;;;;;;5017189;28;20026;-91
2023/10/09 08:49:23;;;;;;;12.88;8.80;;;18.50;99.90;;;;;;5017695;28;20021;-91
2023/10/09 08:51:52;;;;;;;12.07;9.35;;;18.50;99.90;;;;;;5000721;28;20053;-91
2023/10/09 08:54:18;;;;;;;11.43;8.48;;;18.60;99.90;;;;;;5016780;28;20052;-91
2023/10/09 08:56:52;;;;;;;13.18;8.32;;;18.60;99.90;;;;;;5017272;28;20034;-90
2023/10/09 08:59:21;;;;;;;10.75;8.35;;;18.70;99.90;;;;;;5033286;28;20453;-89
2023/10/09 09:01:56;;;;;;;15.52;8.95;;;18.70;99.90;;;;;;5016951;28;20025;-91
2023/10/09 09:04:39;;;;;;;15.85;8.98;;;18.70;99.90;;;;;;5035190;28;20091;-90
2023/10/09 09:07:23;;;;;;;12.48;9.50;;;18.70;99.90;;;;;;5016828;28;20030;-91
2023/10/09 09:10:03;;;;;;;13.05;9.05;;;18.70;99.90;;;;;;5016810;28;20014;-90
2023/10/09 09:12:37;;;;;;;10.65;8.13;;;18.80;99.90;;;;;;5014618;28;20049;-91
2023/10/09 09:15:16;;;;;;;11.30;8.32;;;18.80;99.90;;;;;;5024429;28;20061;-90
2023/10/09 09:17:43;;;;;;;14.17;8.53;;;18.80;99.90;;;;;;5032949;28;20018;-90
2023/10/09 09:20:36;;;;;;;12.70;9.32;;;18.90;99.90;;;;;;5039806;28;20025;-92
2023/10/09 09:23:06;;;;;;;13.35;9.45;;;18.90;99.90;;;;;;5051236;28;20021;-91
2023/10/09 09:25:57;;;;;;;;;;;;;;;;;;;;;
2023/10/09 09:28:26;;;;;;;11.32;8.55;;;19.00;99.90;;;;;;5018182;28;20105;-89
2023/10/09 09:31:07;;;;;;;11.18;8.60;;;19.00;99.90;;;;;;5017153;28;20026;-91
2023/10/09 09:33:43;;;;;;;11.23;8.27;;;19.00;99.90;;;;;;5033066;28;20034;-90
2023/10/09 09:36:12;;;;;;;12.88;8.85;;;19.00;99.90;;;;;;5001341;28;20049;-91
2023/10/09 09:38:47;;;;;;;12.70;8.50;;;19.10;99.90;;;;;;5016633;28;20029;-91
2023/10/09 09:41:24;;;;;;;12.65;8.15;;;19.10;99.90;;;;;;5016484;28;20029;-91
2023/10/09 09:44:00;;;;;;;11.68;8.43;;;19.20;99.90;;;;;;5001712;28;20033;-91
2023/10/09 09:46:38;;;;;;;12.50;9.10;;;19.20;99.90;;;;;;5034444;28;20132;-90
2023/10/09 09:49:12;;;;;;;12.23;8.77;;;19.20;99.90;;;;;;5014429;28;20030;-91
2023/10/09 09:51:41;;;;;;;14.60;10.10;;;19.30;99.90;;;;;;5012069;28;20026;-89
2023/10/09 09:54:15;;;;;;;13.38;9.32;;;19.30;99.90;;;;;;5032723;28;20079;-91
2023/10/09 09:56:50;;;;;;;12.38;8.93;;;19.40;99.90;;;;;;5017714;28;20021;-89
2023/10/09 09:59:27;;;;;;;13.32;9.00;;;19.40;99.90;;;;;;5016038;28;20026;-89
2023/10/09 10:02:00;;;;;;;11.95;8.82;;;19.50;99.90;;;;;;5033028;28;20071;-91
2023/10/09 10:04:30;;;;;;;12.23;9.27;;;19.50;99.90;;;;;;5015774;28;20128;-90
2023/10/09 10:07:03;;;;;;;11.67;8.17;;;19.50;99.90;;;;;;5033612;28;20025;-92
2023/10/09 10:09:48;;;;;;;12.50;8.40;;;19.50;99.90;;;;;;5034350;28;20374;-92
2023/10/09 10:12:17;;;;;;;12.95;8.52;;;19.60;99.90;;;;;;5019693;28;20643;-90
2023/10/09 10:15:14;;;;;;;13.13;7.93;;;19.60;99.90;;;;;;5019708;28;20032;-91
2023/10/09 10:18:07;;;;;;;10.82;7.47;;;19.70;99.90;;;;;;5000109;28;20036;-91
2023/10/09 10:20:55;;;;;;;11.20;7.65;;;19.70;99.90;;;;;;5014845;28;20058;-90
2023/10/09 10:23:36;;;;;;;14.20;7.90;;;19.70;99.90;;;;;;5018702;28;20374;-91
2023/10/09 10:26:33;;;;;;;10.70;7.25;;;19.80;99.90;;;;;;5019503;28;20032;-87
2023/10/09 10:29:22;;;;;;;8.77;6.97;;;19.80;99.90;;;;;;5004544;28;20103;-92
2023/10/09 10:32:01;;;;;;;10.40;6.90;;;19.80;99.90;;;;;;5019766;28;20025;-91
2023/10/09 10:34:54;;;;;;;9.15;6.32;;;19.80;99.90;;;;;;5035836;28;20457;-90
2023/10/09 10:37:44;;;;;;;9.77;6.88;;;19.90;99.90;;;;;;5019092;28;20527;-90
2023/10/09 10:40:37;;;;;;;10.32;6.70;;;19.90;99.90;;;;;;5037032;28;20485;-90
2023/10/09 10:46:24;;;;;;;12.90;7.38;;;20.00;99.90;;;;;;5017315;28;20114;-92
2023/10/09 10:48:59;;;;;;;9.45;6.28;;;20.00;99.90;;;;;;5036983;28;20480;-90
2023/10/09 10:51:37;;;;;;;8.57;6.28;;;20.00;99.90;;;;;;5019334;28;20823;-90
2023/10/09 10:54:28;;;;;;;9.15;6.40;;;20.00;99.90;;;;;;5019314;28;20492;-90
2023/10/09 10:56:57;;;;;;;11.25;6.68;;;20.10;99.90;;;;;;5036276;28;20465;-90
2023/10/09 10:59:24;;;;;;;10.80;7.00;;;20.10;99.90;;;;;;5019407;28;20112;-90
2023/10/09 11:01:57;;;;;;;9.88;6.43;;;20.20;99.90;;;;;;5037146;28;20025;-90
2023/10/09 11:04:24;;;;;;;9.48;6.10;;;20.20;99.90;;;;;;5036084;28;20029;-91
2023/10/09 11:07:27;;;;;;;7.65;5.80;;;20.20;99.90;;;;;;5019995;28;20025;-91
2023/10/09 11:12:42;;;;;;;10.68;6.05;;;20.30;99.90;;;;;;5041808;28;20039;-89
2023/10/09 11:15:29;;;;;;;9.63;6.00;;;20.40;99.90;;;;;;5052302;28;20017;-88
2023/10/09 11:18:07;;;;;;;8.95;5.75;;;20.40;99.90;;;;;;5047381;28;20022;-91
2023/10/09 11:20:53;;;;;;;6.88;4.63;;;20.40;99.90;;;;;;5034703;28;20025;-90
2023/10/09 11:26:21;;;;;;;9.27;5.88;;;20.50;99.90;;;;;;5017302;28;20033;-91
2023/10/09 11:29:12;;;;;;;12.48;6.38;;;20.50;99.90;;;;;;5034809;28;20041;-89
2023/10/09 11:31:45;;;;;;;9.40;6.20;;;20.60;99.90;;;;;;5019140;28;20018;-90
2023/10/09 11:34:29;;;;;;;9.13;4.95;;;20.60;99.90;;;;;;5018178;28;20021;-89
2023/10/09 11:37:15;;;;;;;9.38;6.35;;;20.60;99.90;;;;;;5018271;28;20041;-90
2023/10/09 11:39:56;;;;;;;7.88;5.60;;;20.70;99.90;;;;;;5002784;28;20049;-92
2023/10/09 11:42:38;;;;;;;9.35;5.97;;;20.70;99.90;;;;;;5035750;28;20414;-91
2023/10/09 11:45:24;;;;;;;10.00;5.93;;;20.70;99.90;;;;;;5017829;28;20033;-91
2023/10/09 11:48:11;;;;;;;8.57;5.22;;;20.80;99.90;;;;;;5018214;28;20048;-92
2023/10/09 11:53:49;;;;;;;11.07;5.28;;;20.80;99.90;;;;;;5018524;28;20096;-91
2023/10/09 11:56:21;;;;;;;8.70;5.57;;;20.80;99.90;;;;;;5018340;28;20033;-91
2023/10/09 11:58:57;;;;;;;11.07;5.35;;;20.90;99.90;;;;;;5017873;28;20119;-91
2023/10/09 12:01:35;;;;;;;7.45;4.60;;;20.90;99.90;;;;;;5035624;28;20105;-91
2023/10/09 12:04:01;;;;;;;11.00;5.35;;;20.90;99.90;;;;;;5017766;28;20138;-93
2023/10/09 12:06:43;;;;;;;9.15;5.40;;;20.90;99.90;;;;;;5017423;28;20060;-92
2023/10/09 12:09:18;;;;;;;10.40;5.25;;;20.90;99.90;;;;;;4998171;28;20026;-92
2023/10/09 12:11:52;;;;;;;11.02;5.82;;;20.90;99.90;;;;;;5014716;28;20026;-91
2023/10/09 12:14:33;;;;;;;8.93;5.10;;;21.00;99.90;;;;;;5015470;28;20540;-91
2023/10/09 12:17:05;;;;;;;;;;;20.90;99.90;;;;;;5018948;28;20064;-91
2023/10/09 12:20:03;;;;;;;8.88;4.72;;;21.00;99.90;;;;;;5023560;28;19906;-91
2023/10/09 12:22:40;;;;;;;6.20;4.70;;;21.00;99.90;;;;;;5014716;28;20076;-91
2023/10/09 12:25:09;;;;;;;9.80;4.80;;;21.00;99.90;;;;;;5034083;28;20033;-91
2023/10/09 12:27:35;;;;;;;7.88;4.53;;;21.10;99.90;;;;;;5019386;28;20060;-91
2023/10/09 12:30:05;;;;;;;9.20;5.20;;;21.20;99.90;;;;;;5020199;28;20033;-92
2023/10/09 12:32:36;;;;;;;6.68;4.13;;;21.20;99.90;;;;;;5002693;28;20366;-91
2023/10/09 12:35:16;;;;;;;6.88;4.30;;;21.20;99.90;;;;;;5035328;28;20055;-91
2023/10/09 12:37:47;;;;;;;9.15;4.45;;;21.20;99.90;;;;;;5003106;28;20386;-91
2023/10/09 12:40:13;;;;;;;8.05;4.13;;;21.20;99.90;;;;;;5018052;28;20029;-91
2023/10/09 12:42:42;;;;;;;8.38;4.78;;;21.20;99.90;;;;;;5017555;28;20473;-91
2023/10/09 12:45:09;;;;;;;6.57;4.07;;;21.20;99.90;;;;;;5017274;28;20028;-91
2023/10/09 12:47:37;;;;;;;6.75;4.28;;;21.30;99.90;;;;;;5017542;28;20032;-90
2023/10/09 12:50:13;;;;;;;5.72;3.88;;;21.30;99.90;;;;;;5017578;28;20577;-92
2023/10/09 12:52:42;;;;;;;5.70;3.80;;;21.30;99.90;;;;;;5029791;28;20085;-92
2023/10/09 12:55:18;;;;;;;7.57;4.35;;;21.30;99.90;;;;;;5040741;28;20041;-91
2023/10/09 12:57:47;;;;;;;8.73;4.68;;;21.40;99.90;;;;;;5040393;28;20021;-91
2023/10/09 13:00:18;;;;;;;8.65;4.00;;;21.30;99.90;;;;;;5040638;28;20006;-92
2023/10/09 13:02:47;;;;;;;7.22;4.30;;;21.30;99.90;;;;;;5057205;28;20022;-90
2023/10/09 13:05:25;;;;;;;7.60;4.45;;;21.30;99.90;;;;;;5040149;28;20006;-92
2023/10/09 13:07:57;;;;;;;10.93;4.60;;;21.30;99.90;;;;;;5035831;28;20108;-91
2023/10/09 13:10:35;;;;;;;7.80;4.13;;;21.30;99.90;;;;;;5031604;28;20053;-91
2023/10/09 13:13:05;;;;;;;8.48;4.80;;;21.30;99.90;;;;;;5016288;28;20029;-92
2023/10/09 13:15:42;;;;;;;7.07;3.90;;;21.30;99.90;;;;;;5029485;28;20026;-92
2023/10/09 13:18:08;;;;;;;7.15;4.50;;;21.30;99.90;;;;;;5012644;28;20014;-92
2023/10/09 13:20:36;;;;;;;7.68;4.57;;;21.30;99.90;;;;;;5033987;28;20048;-92
2023/10/09 13:23:06;;;;;;;8.93;4.20;;;21.30;99.90;;;;;;5034571;28;20037;-91
2023/10/09 13:25:39;;;;;;;6.80;4.07;;;21.30;99.90;;;;;;5007706;28;20067;-92
2023/10/09 13:28:05;;;;;;;6.90;4.22;;;21.30;99.90;;;;;;5033340;28;20050;-91
2023/10/09 13:30:39;;;;;;;7.95;4.60;;;21.30;99.90;;;;;;5025654;28;20374;-92
2023/10/09 13:33:07;;;;;;;7.20;4.45;;;21.30;99.90;;;;;;5016526;28;20382;-91
2023/10/09 13:35:40;;;;;;;6.57;3.85;;;21.30;99.90;;;;;;5016348;28;20144;-92
2023/10/09 13:38:14;;;;;;;7.82;4.40;;;21.30;99.90;;;;;;5017065;28;20373;-94
2023/10/09 13:40:44;;;;;;;8.48;4.22;;;21.30;99.90;;;;;;5000631;28;20044;-90
2023/10/09 13:43:16;;;;;;;8.35;4.32;;;21.30;99.90;;;;;;5000731;28;20041;-92
2023/10/09 13:45:49;;;;;;;8.63;4.63;;;21.30;99.90;;;;;;5018964;28;20052;-93
2023/10/09 13:48:17;;;;;;;6.60;4.07;;;21.20;99.90;;;;;;5020949;28;20037;-93
2023/10/09 13:51:07;;;;;;;6.82;3.90;;;21.30;99.90;;;;;;5020554;28;20030;-91
2023/10/09 13:53:36;;;;;;;5.85;4.03;;;21.30;99.90;;;;;;5020059;28;20466;-94
2023/10/09 13:56:14;;;;;;;7.20;4.10;;;21.30;99.90;;;;;;5019584;28;20021;-92
2023/10/09 13:58:43;;;;;;;8.32;4.57;;;21.20;99.90;;;;;;5032449;28;20029;-92
2023/10/09 14:01:09;;;;;;;6.95;4.38;;;21.20;99.90;;;;;;5020575;28;20053;-91
2023/10/09 14:03:38;;;;;;;6.30;4.30;;;21.20;99.90;;;;;;5020150;28;20091;-91
2023/10/09 14:06:12;;;;;;;7.82;4.32;;;21.30;99.90;;;;;;5037863;28;20024;-92
2023/10/09 14:08:45;;;;;;;9.02;4.07;;;21.20;99.90;;;;;;5037316;28;20080;-90
2023/10/09 14:11:13;;;;;;;8.15;4.35;;;21.20;99.90;;;;;;5021014;28;20026;-93
2023/10/09 14:13:47;;;;;;;8.02;4.35;;;21.20;99.90;;;;;;5006306;28;20029;-94
2023/10/09 14:16:23;;;;;;;8.10;4.43;;;21.20;99.90;;;;;;5036097;28;20446;-92
2023/10/09 14:18:57;;;;;;;8.32;4.55;;;21.20;99.90;;;;;;5019689;28;20033;-92
2023/10/09 14:21:30;;;;;;;9.65;4.65;;;21.20;99.90;;;;;;5020072;28;20033;-91
2023/10/09 14:23:57;;;;;;;6.22;4.10;;;21.20;99.90;;;;;;5037503;28;20099;-92
2023/10/09 14:26:25;;;;;;;6.35;4.38;;;21.20;99.90;;;;;;5019804;28;20453;-92
2023/10/09 14:28:56;;;;;;;6.45;4.45;;;21.20;99.90;;;;;;5019272;28;20128;-93
2023/10/09 14:31:28;;;;;;;7.28;3.58;;;21.20;99.90;;;;;;5019776;28;20057;-91
2023/10/09 14:34:05;;;;;;;6.82;3.92;;;21.20;99.90;;;;;;5018661;28;20079;-91
2023/10/09 14:36:44;;;;;;;;;;;;;;;;;;;;;
2023/10/09 14:39:18;;;;;;;7.97;4.10;;;21.20;99.90;;;;;;5037347;28;20029;-91
2023/10/09 14:41:47;;;;;;;6.75;4.07;;;21.20;99.90;;;;;;5035685;28;20029;-91
2023/10/09 14:44:16;;;;;;;10.00;4.07;;;21.20;99.90;;;;;;5035608;28;20095;-92
2023/10/09 14:46:49;;;;;;;6.47;4.20;;;21.20;99.90;;;;;;5019518;28;20025;-92
2023/10/09 14:49:21;;;;;;;7.35;3.92;;;21.20;99.90;;;;;;5020266;28;20040;-92
2023/10/09 14:51:50;;;;;;;6.88;4.45;;;21.20;99.90;;;;;;5003796;28;20469;-92
2023/10/09 14:54:17;;;;;;;8.35;4.13;;;21.10;99.90;;;;;;5019241;28;20124;-95
2023/10/09 14:56:47;;;;;;;9.32;4.30;;;21.20;99.90;;;;;;5036455;28;20013;-92
2023/10/09 14:59:13;;;;;;;7.78;4.38;;;21.20;99.90;;;;;;5021279;28;20389;-94
2023/10/09 15:01:42;;;;;;;7.80;3.95;;;21.10;99.90;;;;;;5041357;28;20033;-90
2023/10/09 15:04:14;;;;;;;6.88;4.35;;;21.20;99.90;;;;;;5042002;28;20014;-93
2023/10/09 15:06:45;;;;;;;8.20;4.40;;;21.20;99.90;;;;;;5023839;28;20048;-92
2023/10/09 15:09:29;;;;;;;9.35;4.70;;;21.20;99.90;;;;;;5029251;28;20048;-92
2023/10/09 15:11:57;;;;;;;8.13;4.10;;;21.10;99.90;;;;;;4987192;28;20038;-92
2023/10/09 15:14:26;;;;;;;7.25;3.88;;;21.20;99.90;;;;;;5006290;28;20028;-93
2023/10/09 15:16:57;;;;;;;8.48;3.80;;;21.20;99.90;;;;;;5012120;28;20088;-94
2023/10/09 15:19:31;;;;;;;8.50;4.15;;;21.20;99.90;;;;;;5036436;28;20091;-93
2023/10/09 15:21:58;;;;;;;8.70;4.60;;;21.20;99.90;;;;;;5003178;28;20029;-92
2023/10/09 15:24:27;;;;;;;13.18;5.00;;;21.20;99.90;;;;;;5018688;28;20515;-94
2023/10/09 15:26:58;;;;;;;5.75;4.25;;;21.20;99.90;;;;;;5016229;28;20025;-93